createdAt,value
2022-12-08T00:00:06.765Z,81.23
2022-12-08T00:01:13.304Z,81.51
2022-12-08T00:02:21.853Z,81.53
2022-12-08T00:03:24.914Z,81.43
2022-12-08T00:04:26.539Z,81.47
2022-12-08T00:05:48.125Z,81.48
2022-12-08T00:07:08.520Z,81.37
2022-12-08T00:11:25.791Z,81.17
2022-12-08T00:12:27.636Z,81.11
2022-12-08T00:13:30.336Z,81.50
2022-12-08T00:14:33.463Z,81.27
2022-12-08T00:15:35.931Z,81.25
2022-12-08T00:16:37.506Z,81.69
2022-12-08T00:17:40.058Z,81.36
2022-12-08T00:18:41.588Z,81.39
2022-12-08T00:19:44.853Z,81.60
2022-12-08T00:20:54.897Z,81.69
2022-12-08T00:21:58.161Z,81.64
2022-12-08T00:22:59.759Z,81.43
2022-12-08T00:24:02.299Z,81.42
2022-12-08T00:25:06.317Z,81.69
2022-12-08T00:26:09.371Z,81.38
2022-12-08T00:27:12.628Z,81.51
2022-12-08T00:28:15.260Z,81.61
2022-12-08T00:29:17.927Z,81.80
2022-12-08T00:30:20.651Z,81.53
2022-12-08T00:31:22.232Z,81.68
2022-12-08T00:32:24.855Z,81.40
2022-12-08T00:33:28.176Z,81.71
2022-12-08T00:34:31.657Z,81.88
2022-12-08T00:35:34.855Z,81.66
2022-12-08T00:36:40.610Z,81.50
2022-12-08T00:37:42.145Z,81.24
2022-12-08T00:38:44.991Z,81.49
2022-12-08T00:39:46.811Z,81.39
2022-12-08T00:40:49.456Z,81.37
2022-12-08T00:42:09.488Z,81.78
2022-12-08T00:43:20.558Z,81.38
2022-12-08T00:44:22.093Z,81.39
2022-12-08T00:45:24.605Z,81.08
2022-12-08T00:46:26.205Z,81.70
2022-12-08T00:47:29.077Z,81.48
2022-12-08T00:48:30.698Z,81.44
2022-12-08T00:49:33.296Z,81.57
2022-12-08T00:50:34.909Z,81.39
2022-12-08T00:51:37.713Z,81.75
2022-12-08T00:52:40.626Z,81.64
2022-12-08T00:53:43.161Z,81.53
2022-12-08T00:54:44.759Z,81.38
2022-12-08T00:55:47.303Z,81.30
2022-12-08T00:56:49.193Z,81.49
2022-12-08T00:57:51.702Z,81.25
2022-12-08T00:58:53.692Z,81.75
2022-12-08T00:59:57.128Z,81.38
2022-12-08T01:00:58.707Z,81.69
2022-12-08T01:02:01.298Z,81.44
2022-12-08T01:03:02.936Z,81.73
2022-12-08T01:04:06.032Z,81.43
2022-12-08T01:05:08.282Z,81.57
2022-12-08T01:06:11.245Z,81.42
2022-12-08T01:07:12.845Z,81.46
2022-12-08T01:08:16.857Z,81.65
2022-12-08T01:09:19.113Z,81.60
2022-12-08T01:10:21.634Z,81.52
2022-12-08T01:11:23.248Z,81.67
2022-12-08T01:12:30.142Z,81.51
2022-12-08T01:13:32.871Z,81.55
2022-12-08T01:14:35.378Z,81.50
2022-12-08T01:20:14.908Z,81.72
2022-12-08T01:21:16.934Z,81.61
2022-12-08T01:22:19.469Z,81.29
2022-12-08T01:23:22.332Z,81.80
2022-12-08T01:24:24.899Z,81.31
2022-12-08T01:25:27.713Z,81.80
2022-12-08T01:26:30.181Z,81.49
2022-12-08T01:27:31.899Z,81.75
2022-12-08T01:28:35.133Z,81.60
2022-12-08T01:29:36.895Z,81.34
2022-12-08T01:30:40.050Z,81.36
2022-12-08T01:31:41.823Z,81.30
2022-12-08T01:32:44.360Z,81.62
2022-12-08T01:33:46.248Z,81.63
2022-12-08T01:34:48.891Z,81.32
2022-12-08T01:35:50.458Z,81.36
2022-12-08T01:36:52.923Z,81.56
2022-12-08T01:37:55.518Z,81.34
2022-12-08T01:38:59.966Z,81.51
2022-12-08T01:40:03.160Z,81.64
2022-12-08T01:41:05.049Z,81.42
2022-12-08T01:42:15.143Z,81.54
2022-12-08T01:43:18.595Z,81.63
2022-12-08T01:44:59.967Z,81.59
2022-12-08T01:46:01.869Z,81.42
2022-12-08T01:47:04.666Z,81.55
2022-12-08T01:48:11.413Z,81.63
2022-12-08T01:49:18.107Z,81.20
2022-12-08T01:50:20.557Z,81.45
2022-12-08T01:51:23.671Z,81.29
2022-12-08T01:52:29.912Z,81.20
2022-12-08T01:53:32.934Z,81.20
2022-12-08T01:54:42.571Z,81.24
2022-12-08T01:55:50.944Z,81.53
2022-12-08T01:56:58.673Z,81.71
2022-12-08T01:58:07.010Z,81.68
2022-12-08T01:59:10.174Z,81.40
2022-12-08T02:00:15.438Z,81.35
2022-12-08T02:01:17.467Z,81.55
2022-12-08T02:02:20.161Z,81.21
2022-12-08T02:03:29.074Z,81.25
2022-12-08T02:04:30.600Z,81.32
2022-12-08T02:05:36.812Z,81.30
2022-12-08T02:06:43.076Z,81.32
2022-12-08T02:07:47.145Z,81.07
2022-12-08T02:08:50.003Z,81.25
2022-12-08T02:09:55.638Z,81.02
2022-12-08T02:10:57.774Z,80.83
2022-12-08T02:12:01.284Z,81.15
2022-12-08T02:13:04.890Z,81.24
2022-12-08T02:14:09.597Z,81.15
2022-12-08T02:15:11.736Z,81.22
2022-12-08T02:16:25.262Z,80.66
2022-12-08T02:17:43.037Z,80.65
2022-12-08T02:19:22.494Z,81.00
2022-12-08T02:20:28.591Z,80.78
2022-12-08T02:21:39.585Z,81.10
2022-12-08T02:22:51.915Z,80.84
2022-12-08T02:24:07.318Z,81.26
2022-12-08T02:25:20.161Z,80.73
2022-12-08T02:26:49.376Z,81.09
2022-12-08T02:28:05.373Z,81.03
2022-12-08T02:29:32.669Z,80.87
2022-12-08T02:30:44.034Z,80.80
2022-12-08T02:31:59.026Z,80.49
2022-12-08T02:33:29.351Z,80.59
2022-12-08T02:34:41.551Z,80.78
2022-12-08T02:35:54.004Z,80.92
2022-12-08T02:37:07.049Z,80.52
2022-12-08T02:38:14.368Z,80.60
2022-12-08T02:39:28.841Z,80.64
2022-12-08T02:40:34.878Z,80.34
2022-12-08T02:41:42.774Z,80.31
2022-12-08T02:42:48.429Z,80.54
2022-12-08T02:43:58.520Z,80.23
2022-12-08T02:45:03.470Z,80.51
2022-12-08T02:46:10.656Z,80.73
2022-12-08T02:47:17.112Z,80.29
2022-12-08T02:48:18.638Z,80.50
2022-12-08T02:49:21.149Z,80.21
2022-12-08T02:50:24.068Z,80.63
2022-12-08T02:51:26.721Z,80.71
2022-12-08T02:52:43.361Z,80.20
2022-12-08T02:53:47.092Z,80.59
2022-12-08T02:54:53.420Z,80.58
2022-12-08T02:56:11.037Z,80.56
2022-12-08T02:57:25.817Z,80.67
2022-12-08T02:58:47.671Z,80.44
2022-12-08T03:00:03.970Z,80.46
2022-12-08T03:01:38.675Z,80.37
2022-12-08T03:02:50.112Z,80.08
2022-12-08T03:04:04.220Z,80.53
2022-12-08T03:05:13.693Z,80.41
2022-12-08T03:06:29.554Z,80.28
2022-12-08T03:07:35.427Z,80.58
2022-12-08T03:08:46.870Z,80.27
2022-12-08T03:09:55.308Z,80.65
2022-12-08T03:11:03.578Z,80.62
2022-12-08T03:12:14.063Z,80.66
2022-12-08T03:13:25.145Z,80.39
2022-12-08T03:14:31.302Z,80.04
2022-12-08T03:15:35.024Z,80.40
2022-12-08T03:16:40.701Z,80.55
2022-12-08T03:17:46.181Z,80.25
2022-12-08T03:18:53.713Z,80.47
2022-12-08T03:19:58.166Z,80.18
2022-12-08T03:21:01.500Z,80.30
2022-12-08T03:22:06.870Z,79.99
2022-12-08T03:23:12.393Z,80.15
2022-12-08T03:24:16.368Z,80.46
2022-12-08T03:25:23.029Z,80.25
2022-12-08T03:26:30.229Z,80.26
2022-12-08T03:27:33.312Z,80.52
2022-12-08T03:28:35.033Z,80.23
2022-12-08T03:29:37.597Z,79.90
2022-12-08T03:30:43.101Z,79.96
2022-12-08T03:31:52.247Z,80.26
2022-12-08T03:33:01.655Z,80.49
2022-12-08T03:34:06.039Z,80.21
2022-12-08T03:35:10.891Z,80.42
2022-12-08T03:36:15.237Z,80.29
2022-12-08T03:37:18.308Z,80.35
2022-12-08T03:38:20.838Z,80.32
2022-12-08T03:39:22.402Z,80.09
2022-12-08T03:40:26.330Z,80.22
2022-12-08T03:41:28.206Z,79.80
2022-12-08T03:42:30.679Z,80.03
2022-12-08T03:43:32.424Z,79.82
2022-12-08T03:44:34.899Z,80.30
2022-12-08T03:45:36.607Z,80.14
2022-12-08T03:46:39.153Z,80.08
2022-12-08T03:47:40.667Z,80.01
2022-12-08T03:48:43.242Z,79.66
2022-12-08T03:49:44.776Z,79.99
2022-12-08T03:50:47.243Z,79.65
2022-12-08T03:51:48.813Z,79.62
2022-12-08T03:52:52.644Z,79.88
2022-12-08T03:53:54.289Z,80.06
2022-12-08T03:54:56.823Z,80.12
2022-12-08T03:55:58.404Z,80.16
2022-12-08T03:57:00.861Z,79.95
2022-12-08T03:58:02.487Z,80.08
2022-12-08T03:59:05.526Z,80.00
2022-12-08T04:00:09.937Z,79.54
2022-12-08T04:01:14.298Z,79.72
2022-12-08T04:02:16.892Z,79.82
2022-12-08T04:03:18.524Z,79.84
2022-12-08T04:04:21.079Z,79.98
2022-12-08T04:05:22.590Z,79.58
2022-12-08T04:06:25.409Z,79.83
2022-12-08T04:07:27.070Z,79.64
2022-12-08T04:08:30.995Z,79.93
2022-12-08T04:09:34.178Z,79.54
2022-12-08T04:10:36.386Z,79.39
2022-12-08T04:11:38.896Z,79.54
2022-12-08T04:12:40.433Z,79.58
2022-12-08T04:13:43.524Z,79.80
2022-12-08T04:14:45.038Z,79.61
2022-12-08T04:15:48.241Z,79.57
2022-12-08T04:16:49.832Z,79.52
2022-12-08T04:17:52.304Z,79.69
2022-12-08T04:18:54.250Z,79.54
2022-12-08T04:19:57.288Z,79.52
2022-12-08T04:20:58.822Z,79.38
2022-12-08T04:22:01.309Z,79.64
2022-12-08T04:23:02.887Z,79.53
2022-12-08T04:24:07.685Z,79.65
2022-12-08T04:25:09.603Z,79.42
2022-12-08T04:26:12.532Z,79.72
2022-12-08T04:27:15.865Z,79.78
2022-12-08T04:28:18.557Z,79.71
2022-12-08T04:29:20.073Z,79.49
2022-12-08T04:30:22.643Z,79.31
2022-12-08T04:31:24.471Z,79.59
2022-12-08T04:32:26.972Z,79.73
2022-12-08T04:33:28.817Z,79.48
2022-12-08T04:34:31.308Z,79.33
2022-12-08T04:35:32.909Z,79.67
2022-12-08T04:36:35.445Z,79.63
2022-12-08T04:37:36.958Z,79.50
2022-12-08T04:38:39.863Z,79.47
2022-12-08T04:39:42.768Z,79.45
2022-12-08T04:40:45.374Z,79.55
2022-12-08T04:41:46.933Z,79.48
2022-12-08T04:42:49.456Z,79.31
2022-12-08T04:43:51.975Z,79.74
2022-12-08T04:44:53.488Z,79.94
2022-12-08T04:45:56.053Z,79.70
2022-12-08T04:46:57.607Z,79.84
2022-12-08T04:48:00.482Z,79.58
2022-12-08T04:49:03.031Z,79.65
2022-12-08T04:50:06.331Z,79.53
2022-12-08T04:51:16.023Z,79.85
2022-12-08T04:52:17.529Z,79.74
2022-12-08T04:53:21.199Z,79.75
2022-12-08T04:54:22.783Z,79.94
2022-12-08T04:55:26.671Z,80.01
2022-12-08T04:56:28.200Z,80.07
2022-12-08T04:57:30.774Z,80.04
2022-12-08T04:58:32.316Z,79.75
2022-12-08T04:59:37.832Z,79.69
2022-12-08T05:00:39.766Z,80.00
2022-12-08T05:01:42.704Z,79.86
2022-12-08T05:02:44.844Z,79.92
2022-12-08T05:03:47.419Z,79.77
2022-12-08T05:04:48.981Z,80.00
2022-12-08T05:05:51.464Z,80.23
2022-12-08T05:06:53.012Z,79.98
2022-12-08T05:07:55.482Z,80.00
2022-12-08T05:08:57.095Z,80.42
2022-12-08T05:09:59.831Z,80.51
2022-12-08T05:11:04.061Z,80.08
2022-12-08T05:12:06.766Z,80.40
2022-12-08T05:13:08.284Z,80.06
2022-12-08T05:14:12.882Z,80.06
2022-12-08T05:15:14.599Z,80.29
2022-12-08T05:16:17.552Z,80.30
2022-12-08T05:17:19.227Z,80.63
2022-12-08T05:18:21.781Z,80.27
2022-12-08T05:19:26.740Z,80.34
2022-12-08T05:20:29.315Z,80.48
2022-12-08T05:21:30.927Z,80.55
2022-12-08T05:22:33.463Z,80.77
2022-12-08T05:23:35.632Z,80.66
2022-12-08T05:24:42.537Z,80.48
2022-12-08T05:25:48.250Z,80.89
2022-12-08T05:26:51.110Z,80.72
2022-12-08T05:28:06.231Z,80.97
2022-12-08T05:29:16.301Z,80.86
2022-12-08T05:30:18.914Z,80.71
2022-12-08T05:31:20.468Z,80.42
2022-12-08T05:32:23.091Z,80.81
2022-12-08T05:33:24.715Z,80.91
2022-12-08T05:34:27.468Z,80.67
2022-12-08T05:35:29.095Z,81.19
2022-12-08T05:36:31.628Z,80.65
2022-12-08T05:37:33.357Z,80.83
2022-12-08T05:38:35.905Z,81.12
2022-12-08T05:39:37.673Z,81.09
2022-12-08T05:40:41.095Z,81.38
2022-12-08T05:41:42.812Z,81.03
2022-12-08T05:42:46.946Z,81.20
2022-12-08T05:43:48.909Z,81.26
2022-12-08T05:44:51.409Z,81.05
2022-12-08T05:45:53.077Z,80.82
2022-12-08T05:46:55.604Z,81.26
2022-12-08T05:47:57.194Z,81.10
2022-12-08T05:49:01.000Z,81.22
2022-12-08T05:50:03.060Z,81.13
2022-12-08T05:51:06.389Z,80.93
2022-12-08T05:52:12.521Z,81.00
2022-12-08T05:53:15.087Z,81.25
2022-12-08T05:54:16.749Z,81.19
2022-12-08T05:55:19.237Z,81.30
2022-12-08T05:56:21.659Z,81.21
2022-12-08T05:57:24.113Z,81.02
2022-12-08T05:58:26.991Z,81.18
2022-12-08T05:59:29.506Z,81.06
2022-12-08T06:00:34.622Z,81.40
2022-12-08T06:01:37.420Z,80.96
2022-12-08T06:02:39.203Z,80.69
2022-12-08T06:03:41.902Z,80.73
2022-12-08T06:04:44.449Z,81.12
2022-12-08T06:05:47.236Z,81.35
2022-12-08T06:06:49.695Z,81.09
2022-12-08T06:07:51.326Z,81.24
2022-12-08T06:08:54.000Z,81.01
2022-12-08T06:09:55.591Z,81.29
2022-12-08T06:10:58.163Z,80.96
2022-12-08T06:11:59.688Z,81.35
2022-12-08T06:13:02.224Z,81.18
2022-12-08T06:14:05.181Z,81.17
2022-12-08T06:15:09.081Z,81.52
2022-12-08T06:16:11.627Z,81.31
2022-12-08T06:17:13.272Z,81.19
2022-12-08T06:18:15.968Z,81.57
2022-12-08T06:19:17.691Z,81.62
2022-12-08T06:20:20.192Z,81.38
2022-12-08T06:21:21.864Z,81.54
2022-12-08T06:22:24.382Z,81.51
2022-12-08T06:23:25.955Z,81.42
2022-12-08T06:24:28.633Z,81.27
2022-12-08T06:25:30.464Z,81.46
2022-12-08T06:26:32.965Z,81.14
2022-12-08T06:27:35.462Z,81.66
2022-12-08T06:28:37.366Z,81.66
2022-12-08T06:29:41.290Z,81.70
2022-12-08T06:30:42.851Z,81.72
2022-12-08T06:31:45.465Z,81.79
2022-12-08T06:32:47.058Z,81.54
2022-12-08T06:33:49.744Z,81.71
2022-12-08T06:34:51.332Z,81.70
2022-12-08T06:35:54.044Z,81.37
2022-12-08T06:36:56.523Z,81.85
2022-12-08T06:38:00.026Z,81.70
2022-12-08T06:39:02.953Z,81.85
2022-12-08T06:40:05.703Z,81.84
2022-12-08T06:41:15.323Z,82.04
2022-12-08T06:42:35.482Z,81.49
2022-12-08T06:43:37.986Z,81.80
2022-12-08T06:44:40.925Z,81.59
2022-12-08T06:45:43.501Z,81.57
2022-12-08T06:46:45.281Z,81.86
2022-12-08T06:47:47.850Z,81.71
2022-12-08T06:48:50.658Z,82.09
2022-12-08T06:49:52.244Z,81.81
2022-12-08T06:50:54.836Z,82.04
2022-12-08T06:51:56.513Z,81.59
2022-12-08T06:53:05.153Z,82.07
2022-12-08T06:54:08.396Z,82.10
2022-12-08T06:55:10.445Z,82.20
2022-12-08T06:56:14.071Z,82.17
2022-12-08T06:57:15.663Z,82.20
2022-12-08T06:58:18.366Z,81.97
2022-12-08T06:59:19.937Z,81.88
2022-12-08T07:00:23.983Z,82.33
2022-12-08T07:01:26.552Z,82.37
2022-12-08T07:02:28.227Z,81.81
2022-12-08T07:03:30.776Z,82.09
2022-12-08T07:04:33.560Z,82.27
2022-12-08T07:05:35.228Z,81.95
2022-12-08T07:06:37.932Z,82.17
2022-12-08T07:07:41.348Z,81.94
2022-12-08T07:08:43.987Z,82.29
2022-12-08T07:09:45.514Z,81.98
2022-12-08T07:10:47.999Z,82.29
2022-12-08T07:11:49.715Z,82.23
2022-12-08T07:12:52.272Z,82.39
2022-12-08T07:13:56.798Z,82.51
2022-12-08T07:14:58.868Z,82.04
2022-12-08T07:16:06.251Z,82.53
2022-12-08T07:17:08.139Z,82.27
2022-12-08T07:18:11.131Z,82.40
2022-12-08T07:19:13.643Z,82.19
2022-12-08T07:20:15.601Z,82.36
2022-12-08T07:21:18.778Z,82.50
2022-12-08T07:22:21.223Z,82.34
2022-12-08T07:23:23.943Z,82.29
2022-12-08T07:24:26.473Z,82.20
2022-12-08T07:25:28.043Z,82.38
2022-12-08T07:26:30.590Z,82.26
2022-12-08T07:27:32.219Z,82.46
2022-12-08T07:28:36.238Z,82.60
2022-12-08T07:29:37.821Z,82.44
2022-12-08T07:30:40.502Z,82.36
2022-12-08T07:31:43.514Z,82.50
2022-12-08T07:32:46.406Z,82.75
2022-12-08T07:33:48.057Z,82.43
2022-12-08T07:34:50.513Z,82.54
2022-12-08T07:35:54.980Z,82.84
2022-12-08T07:36:57.505Z,82.69
2022-12-08T07:38:00.214Z,82.54
2022-12-08T07:39:01.798Z,82.78
2022-12-08T07:40:05.344Z,82.74
2022-12-08T07:41:12.616Z,82.63
2022-12-08T07:42:15.124Z,82.69
2022-12-08T07:43:16.785Z,82.63
2022-12-08T07:44:19.353Z,82.68
2022-12-08T07:45:20.856Z,82.79
2022-12-08T07:46:25.634Z,82.82
2022-12-08T07:47:28.543Z,82.67
2022-12-08T07:48:31.012Z,82.80
2022-12-08T07:49:33.496Z,82.36
2022-12-08T07:50:36.386Z,82.75
2022-12-08T07:51:38.907Z,82.33
2022-12-08T07:52:40.471Z,82.44
2022-12-08T07:53:48.403Z,82.57
2022-12-08T07:54:53.327Z,82.66
2022-12-08T07:55:55.834Z,82.47
2022-12-08T07:56:58.551Z,82.64
2022-12-08T07:58:01.088Z,82.49
2022-12-08T07:59:04.075Z,82.58
2022-12-08T08:00:07.360Z,82.49
2022-12-08T08:01:21.473Z,82.74
2022-12-08T08:02:26.004Z,82.78
2022-12-08T08:03:30.432Z,82.68
2022-12-08T08:04:32.036Z,82.95
2022-12-08T08:05:34.580Z,82.98
2022-12-08T08:06:37.878Z,82.57
2022-12-08T08:07:41.989Z,83.12
2022-12-08T08:08:44.649Z,82.68
2022-12-08T08:09:46.154Z,83.00
2022-12-08T08:10:48.673Z,83.05
2022-12-08T08:15:03.607Z,82.63
2022-12-08T08:16:07.172Z,82.50
2022-12-08T08:17:08.866Z,82.67
2022-12-08T08:18:11.501Z,82.49
2022-12-08T08:19:14.430Z,82.65
2022-12-08T08:20:17.009Z,82.77
2022-12-08T08:22:43.497Z,83.09
2022-12-08T08:23:46.158Z,82.63
2022-12-08T08:24:47.811Z,83.12
2022-12-08T08:25:50.352Z,82.84
2022-12-08T08:26:55.150Z,83.21
2022-12-08T08:27:56.770Z,83.19
2022-12-08T08:28:59.505Z,82.92
2022-12-08T08:30:05.103Z,83.16
2022-12-08T08:31:08.247Z,82.85
2022-12-08T08:32:09.975Z,83.09
2022-12-08T08:33:12.474Z,82.87
2022-12-08T08:34:15.339Z,82.95
2022-12-08T08:35:18.431Z,83.41
2022-12-08T08:36:21.931Z,83.11
2022-12-08T08:37:24.593Z,83.33
2022-12-08T08:38:26.349Z,83.15
2022-12-08T08:39:30.586Z,82.95
2022-12-08T08:40:32.312Z,83.23
2022-12-08T08:41:35.317Z,83.18
2022-12-08T08:42:37.816Z,83.06
2022-12-08T08:43:39.480Z,83.38
2022-12-08T08:44:42.116Z,83.34
2022-12-08T08:45:43.925Z,83.39
2022-12-08T08:46:46.437Z,83.40
2022-12-08T08:47:48.104Z,83.45
2022-12-08T08:48:50.661Z,83.10
2022-12-08T08:49:54.515Z,83.46
2022-12-08T08:50:57.347Z,83.29
2022-12-08T08:51:59.851Z,83.58
2022-12-08T08:53:02.667Z,83.25
2022-12-08T08:54:05.319Z,83.62
2022-12-08T08:55:07.466Z,83.24
2022-12-08T08:56:11.212Z,83.16
2022-12-08T08:57:25.734Z,83.09
2022-12-08T08:58:28.714Z,83.00
2022-12-08T08:59:31.334Z,83.20
2022-12-08T09:00:32.856Z,83.55
2022-12-08T09:01:35.421Z,83.32
2022-12-08T09:02:38.310Z,83.11
2022-12-08T09:03:39.860Z,83.54
2022-12-08T09:04:42.473Z,83.06
2022-12-08T09:05:45.434Z,83.33
2022-12-08T09:06:48.297Z,83.37
2022-12-08T09:07:49.922Z,83.27
2022-12-08T09:08:52.799Z,83.46
2022-12-08T09:10:01.444Z,83.40
2022-12-08T09:11:04.564Z,83.44
2022-12-08T09:12:06.556Z,83.19
2022-12-08T09:13:09.876Z,83.40
2022-12-08T09:14:12.868Z,83.26
2022-12-08T09:15:15.877Z,83.25
2022-12-08T09:16:19.220Z,83.30
2022-12-08T09:17:20.817Z,83.78
2022-12-08T09:18:23.373Z,83.39
2022-12-08T09:19:25.919Z,83.69
2022-12-08T09:20:27.534Z,83.26
2022-12-08T09:21:37.244Z,83.73
2022-12-08T09:22:38.831Z,83.15
2022-12-08T09:23:41.525Z,83.66
2022-12-08T09:24:43.041Z,83.60
2022-12-08T09:25:45.992Z,83.20
2022-12-08T09:26:47.576Z,83.62
2022-12-08T09:27:50.092Z,83.70
2022-12-08T09:28:52.838Z,83.21
2022-12-08T09:29:55.295Z,83.43
2022-12-08T09:30:56.921Z,83.60
2022-12-08T09:31:59.556Z,83.67
2022-12-08T09:33:02.218Z,83.22
2022-12-08T09:34:05.283Z,83.51
2022-12-08T09:35:08.285Z,83.31
2022-12-08T09:36:11.896Z,83.43
2022-12-08T09:37:15.749Z,83.76
2022-12-08T09:38:17.347Z,83.24
2022-12-08T09:39:19.853Z,83.44
2022-12-08T09:40:24.783Z,83.38
2022-12-08T09:41:37.868Z,83.33
2022-12-08T09:42:51.481Z,83.08
2022-12-08T09:44:04.093Z,83.23
2022-12-08T09:45:11.451Z,83.26
2022-12-08T09:46:17.383Z,83.17
2022-12-08T09:47:23.573Z,83.23
2022-12-08T09:48:32.764Z,83.15
2022-12-08T09:49:39.573Z,83.56
2022-12-08T09:50:47.459Z,83.45
2022-12-08T09:51:50.377Z,83.20
2022-12-08T09:53:01.413Z,83.44
2022-12-08T09:54:07.738Z,83.18
2022-12-08T09:55:21.499Z,82.91
2022-12-08T09:56:25.577Z,83.24
2022-12-08T09:57:30.275Z,83.23
2022-12-08T09:58:45.069Z,83.21
2022-12-08T09:59:53.585Z,83.11
2022-12-08T10:00:56.970Z,82.83
2022-12-08T10:02:01.108Z,82.90
2022-12-08T10:03:04.114Z,83.09
2022-12-08T10:04:16.020Z,83.11
2022-12-08T10:05:17.873Z,83.12
2022-12-08T10:06:25.860Z,83.11
2022-12-08T10:07:39.177Z,83.32
2022-12-08T10:08:59.392Z,83.04
2022-12-08T10:10:08.161Z,83.31
2022-12-08T10:11:17.486Z,82.84
2022-12-08T10:12:27.342Z,82.87
2022-12-08T10:13:37.836Z,83.14
2022-12-08T10:14:43.887Z,82.94
2022-12-08T10:15:52.627Z,82.94
2022-12-08T10:17:02.798Z,82.83
2022-12-08T10:18:13.603Z,83.23
2022-12-08T10:19:19.708Z,82.86
2022-12-08T10:20:25.785Z,83.06
2022-12-08T10:21:31.595Z,82.95
2022-12-08T10:22:41.257Z,83.05
2022-12-08T10:23:51.187Z,82.71
2022-12-08T10:24:59.662Z,82.58
2022-12-08T10:26:04.909Z,82.85
2022-12-08T10:27:12.776Z,82.50
2022-12-08T10:28:15.574Z,82.67
2022-12-08T10:29:18.875Z,82.80
2022-12-08T10:30:22.197Z,82.73
2022-12-08T10:31:26.277Z,82.51
2022-12-08T10:32:36.319Z,82.67
2022-12-08T10:33:40.063Z,82.68
2022-12-08T10:35:02.053Z,82.42
2022-12-08T10:36:04.934Z,82.39
2022-12-08T10:37:10.550Z,82.46
2022-12-08T10:38:22.126Z,82.47
2022-12-08T10:39:35.585Z,82.61
2022-12-08T10:40:45.284Z,82.72
2022-12-08T10:41:48.204Z,82.32
2022-12-08T10:42:53.382Z,82.59
2022-12-08T10:44:00.456Z,82.87
2022-12-08T10:45:15.859Z,82.46
2022-12-08T10:46:21.766Z,82.46
2022-12-08T10:47:27.692Z,82.65
2022-12-08T10:48:31.615Z,82.81
2022-12-08T10:49:35.350Z,82.56
2022-12-08T10:50:44.045Z,82.28
2022-12-08T10:51:45.729Z,82.37
2022-12-08T10:52:55.824Z,82.32
2022-12-08T10:53:58.412Z,82.34
2022-12-08T10:55:01.466Z,82.65
2022-12-08T10:56:15.421Z,82.28
2022-12-08T10:57:22.213Z,82.62
2022-12-08T10:58:30.818Z,82.58
2022-12-08T10:59:34.803Z,82.32
2022-12-08T11:00:39.159Z,82.47
2022-12-08T11:01:43.764Z,82.46
2022-12-08T11:02:59.288Z,82.10
2022-12-08T11:04:04.996Z,82.11
2022-12-08T11:05:08.116Z,82.12
2022-12-08T11:06:16.228Z,81.93
2022-12-08T11:07:23.679Z,82.33
2022-12-08T11:08:26.629Z,82.20
2022-12-08T11:09:40.694Z,81.85
2022-12-08T11:10:46.230Z,82.01
2022-12-08T11:11:51.162Z,81.86
2022-12-08T11:12:53.740Z,81.84
2022-12-08T11:13:56.647Z,81.97
2022-12-08T11:15:03.599Z,82.27
2022-12-08T11:16:07.445Z,81.89
2022-12-08T11:17:13.800Z,81.63
2022-12-08T11:18:26.897Z,82.16
2022-12-08T11:19:29.457Z,82.15
2022-12-08T11:20:40.554Z,82.17
2022-12-08T11:21:43.634Z,82.06
2022-12-08T11:22:50.761Z,82.17
2022-12-08T11:23:53.265Z,81.99
2022-12-08T11:25:00.556Z,81.82
2022-12-08T11:26:13.811Z,81.76
2022-12-08T11:27:15.322Z,81.39
2022-12-08T11:28:23.074Z,81.35
2022-12-08T11:29:25.796Z,81.82
2022-12-08T11:30:31.441Z,81.41
2022-12-08T11:31:39.237Z,81.56
2022-12-08T11:32:44.734Z,81.63
2022-12-08T11:33:49.572Z,81.20
2022-12-08T11:34:55.988Z,81.33
2022-12-08T11:36:03.144Z,81.30
2022-12-08T11:37:11.271Z,81.27
2022-12-08T11:38:21.742Z,81.16
2022-12-08T11:39:27.788Z,80.82
2022-12-08T11:40:35.364Z,80.72
2022-12-08T11:41:42.840Z,80.55
2022-12-08T11:42:54.724Z,80.69
2022-12-08T11:44:05.466Z,80.58
2022-12-08T11:45:14.721Z,80.55
2022-12-08T11:46:21.893Z,80.66
2022-12-08T11:47:28.535Z,80.69
2022-12-08T11:48:35.049Z,80.66
2022-12-08T11:49:40.214Z,80.68
2022-12-08T11:50:47.137Z,80.21
2022-12-08T11:51:58.285Z,80.44
2022-12-08T11:53:01.589Z,80.39
2022-12-08T11:54:19.982Z,80.41
2022-12-08T11:55:37.180Z,80.19
2022-12-08T11:56:46.894Z,80.21
2022-12-08T11:57:50.198Z,80.01
2022-12-08T11:58:57.178Z,80.15
2022-12-08T12:00:01.842Z,80.18
2022-12-08T12:01:17.895Z,79.64
2022-12-08T12:02:23.088Z,79.88
2022-12-08T12:03:32.176Z,79.63
2022-12-08T12:04:41.315Z,79.72
2022-12-08T12:07:37.038Z,79.20
2022-12-08T12:08:50.279Z,79.12
2022-12-08T12:10:08.224Z,78.98
2022-12-08T12:11:37.912Z,78.83
2022-12-08T12:12:59.112Z,78.92
2022-12-08T12:14:16.350Z,79.02
2022-12-08T12:15:39.577Z,78.90
2022-12-08T12:16:57.610Z,78.86
2022-12-08T12:18:05.195Z,79.02
2022-12-08T12:19:15.718Z,79.14
2022-12-08T12:20:25.099Z,78.79
2022-12-08T12:21:33.879Z,78.96
2022-12-08T12:22:38.415Z,79.03
2022-12-08T12:23:45.868Z,78.91
2022-12-08T12:24:51.067Z,78.89
2022-12-08T12:25:59.056Z,78.81
2022-12-08T12:27:04.611Z,78.76
2022-12-08T12:28:08.949Z,78.60
2022-12-08T12:29:18.264Z,78.60
2022-12-08T12:30:23.410Z,78.26
2022-12-08T12:31:29.105Z,78.20
2022-12-08T12:32:43.632Z,78.43
2022-12-08T12:33:47.769Z,77.90
2022-12-08T12:34:53.244Z,77.99
2022-12-08T12:35:58.030Z,77.91
2022-12-08T12:37:08.860Z,77.97
2022-12-08T12:38:40.285Z,77.97
2022-12-08T12:39:51.248Z,77.37
2022-12-08T12:40:59.718Z,77.44
2022-12-08T12:42:03.634Z,77.27
2022-12-08T12:43:29.936Z,77.52
2022-12-08T12:44:43.384Z,77.20
2022-12-08T12:45:46.531Z,77.42
2022-12-08T12:46:59.355Z,77.45
2022-12-08T12:48:22.839Z,77.17
2022-12-08T12:49:52.011Z,77.10
2022-12-08T12:50:56.703Z,77.04
2022-12-08T12:51:58.290Z,76.96
2022-12-08T12:53:02.020Z,76.88
2022-12-08T12:54:22.434Z,77.08
2022-12-08T12:55:30.942Z,77.01
2022-12-08T12:56:51.487Z,76.82
2022-12-08T12:57:55.397Z,76.90
2022-12-08T12:59:31.915Z,77.11
2022-12-08T13:00:34.370Z,76.66
2022-12-08T13:01:51.972Z,76.52
2022-12-08T13:02:56.410Z,76.37
2022-12-08T13:04:05.212Z,76.44
2022-12-08T13:05:15.825Z,76.47
2022-12-08T13:06:23.980Z,76.41
2022-12-08T13:07:29.556Z,76.52
2022-12-08T13:08:34.932Z,76.36
2022-12-08T13:09:41.443Z,76.69
2022-12-08T13:10:57.965Z,76.17
2022-12-08T13:12:02.814Z,76.67
2022-12-08T13:13:17.171Z,76.24
2022-12-08T13:14:34.323Z,76.19
2022-12-08T13:15:39.247Z,76.01
2022-12-08T13:16:40.923Z,76.02
2022-12-08T13:17:47.600Z,75.98
2022-12-08T13:18:50.918Z,75.91
2022-12-08T13:19:57.339Z,76.12
2022-12-08T13:21:05.653Z,75.70
2022-12-08T13:22:45.005Z,75.93
2022-12-08T13:23:49.355Z,75.67
2022-12-08T13:24:50.983Z,75.73
2022-12-08T13:26:09.840Z,75.81
2022-12-08T13:27:35.275Z,75.61
2022-12-08T13:29:11.419Z,75.70
2022-12-08T13:30:42.125Z,75.60
2022-12-08T13:31:50.501Z,75.53
2022-12-08T13:34:25.442Z,75.62
2022-12-08T13:35:28.435Z,75.79
2022-12-08T13:36:36.223Z,75.67
2022-12-08T13:37:54.471Z,75.50
2022-12-08T13:38:59.584Z,75.75
2022-12-08T13:40:05.551Z,75.96
2022-12-08T13:41:18.371Z,75.84
2022-12-08T13:42:25.883Z,75.57
2022-12-08T13:43:48.365Z,75.55
2022-12-08T13:47:09.801Z,75.73
2022-12-08T13:53:49.096Z,75.47
2022-12-08T13:56:37.442Z,75.42
2022-12-08T13:57:06.705Z,75.29
2022-12-08T13:58:07.572Z,75.19
2022-12-08T13:59:24.205Z,75.28
2022-12-08T14:00:28.299Z,75.40
2022-12-08T14:01:33.339Z,75.04
2022-12-08T14:02:42.261Z,75.14
2022-12-08T14:04:28.531Z,75.23
2022-12-08T14:05:34.730Z,75.14
2022-12-08T14:06:39.609Z,74.95
2022-12-08T14:07:43.017Z,74.68
2022-12-08T14:09:00.371Z,75.05
2022-12-08T14:10:12.160Z,74.61
2022-12-08T14:11:33.446Z,74.58
2022-12-08T14:12:36.760Z,74.57
2022-12-08T14:13:39.376Z,74.60
2022-12-08T14:16:16.448Z,74.55
2022-12-08T14:17:22.917Z,74.87
2022-12-08T14:18:27.454Z,74.71
2022-12-08T14:19:32.215Z,74.75
2022-12-08T14:20:57.902Z,74.58
2022-12-08T14:21:59.452Z,74.29
2022-12-08T14:23:08.308Z,74.60
2022-12-08T14:24:11.277Z,74.40
2022-12-08T14:25:16.628Z,74.47
2022-12-08T14:26:18.349Z,74.67
2022-12-08T14:27:23.457Z,74.51
2022-12-08T14:28:25.573Z,74.42
2022-12-08T14:29:39.987Z,74.40
2022-12-08T14:30:42.728Z,74.63
2022-12-08T14:31:45.808Z,74.11